x

Shumagin Islands - 85nm South Of Sand Point, Ak (46075) Wave Buoy

2:50am - Fri 19th Sep 2014 All times are UTC.

  • Sig Wave height 6.9ft
  • Peak Period 11s
  • Average Period 6s
  • Wind
    18mph, 20mph gusts
  • Sea Temp 53°f
  • 空気 Temp 52°f
  • Sea Pressure 994.9mb

More Historic Weather Station data

Upgrade to MSW Pro to gain access to the past 30 days of data for over 8000 Wavebouys and Weather Stations around the globe.

Join Pro

Comparision Forecast

View Surf forecast
   
Fri 09/19 2:50am 7ft 11s 6s 18 20 mph 994.9mb 53f 52f
1:50am 7.5ft 6s 6s 18 22 mph 994.7mb 53f 52f
12:50am 7ft 6s 5s 20 25 mph 994.6mb 53f 52f
Thu 09/18 11:50pm  -   -   -  20 22 mph 994.5mb 53f 52f
10:50pm 7.5ft 9s 6s 20 25 mph 994.3mb 53f 52f
9:50pm 7.5ft 7s 6s 20 25 mph 994.1mb 53f 52f
8:50pm 7.5ft 8s 6s 20 25 mph 994.1mb 53f 52f
7:50pm 7.5ft 6s 6s 20 25 mph 993.8mb 53f 52f
6:50pm 7ft 8s 6s 22 29 mph 993.6mb 53f 52f
5:50pm 7.5ft 9s 6s 20 27 mph 993.3mb 53f 53f
4:50pm 7.5ft 6s 6s 22 27 mph 992.9mb 53f 53f
3:50pm 7ft 8s 5s 25 31 mph 992.5mb 53f 53f
2:50pm 7.5ft 8s 6s 22 27 mph 992.3mb 53f 53f
1:50pm 7.5ft 9s 6s 22 27 mph 992.3mb 53f 53f
12:50pm 9ft 8s 6s 25 29 mph 992.2mb 53f 53f
11:50am 9ft 8s 6s 22 29 mph 991.8mb 53f 52f
10:50am 8ft 7s 6s 25 29 mph 991.8mb 53f 52f
9:50am 8ft 7s 5s 27 34 mph 991.4mb 53f 52f
8:50am 7ft 7s 5s 25 31 mph 991.2mb 53f 53f
7:50am 7ft 7s 5s 22 29 mph 990.9mb 53f 53f
6:50am 7ft 7s 6s 25 31 mph 990.5mb 53f 53f
5:50am 6.5ft 7s 5s 25 27 mph 989.9mb 53f 53f
4:50am 7ft 7s 5s 25 29 mph 989.3mb 53f 54f
3:50am 7ft 7s 6s 20 25 mph 988.8mb 53f 54f
2:50am 6ft 6s 5s 25 31 mph 988.1mb 53f 54f
1:50am 6ft 6s 5s 22 27 mph 988.1mb 53f 53f
12:50am 5.5ft 6s 5s 20 25 mph 988mb 53f 53f
Wed 09/17 11:50pm 5ft 7s 5s 20 25 mph 988.4mb 53f 53f
10:50pm 5ft 7s 5s 13 18 mph 988.6mb 53f 53f
9:50pm 5ft 8s 6s 11 13 mph 988.6mb 52f 53f
8:50pm 5ft 7s 6s 13 16 mph 988.7mb 52f 52f
7:50pm 5ft 7s 6s 13 16 mph 988.9mb 52f 52f
6:50pm 5ft 7s 6s 11 13 mph 989.1mb 52f 51f
5:50pm 5ft 8s 6s 13
mph
989.1mb 52f 52f
4:50pm 5ft 8s 6s 11 13 mph 989.4mb 52f 51f
3:50pm  -   -   -  13 16 mph 989.5mb 52f 51f
2:50pm 6ft 7s 6s 16 20 mph 989.9mb 52f 51f
1:50pm 6ft 8s 6s 13 16 mph 990.7mb 52f 51f
12:50pm 7ft 8s 6s 16 18 mph 991.3mb 52f 51f
11:50am 7.5ft 8s 6s 16 20 mph 992.1mb 52f 51f
10:50am 7.5ft 8s 6s 18 20 mph 992.7mb 52f 51f
9:50am 8ft 8s 6s 20 22 mph 993.2mb 53f 51f
8:50am 8ft 8s 6s 20 22 mph 993.6mb 53f 52f
7:50am 9ft 8s 6s 20 22 mph 993.9mb 52f 52f
6:50am 9ft 8s 6s 20 22 mph 994.1mb 53f 51f
5:50am 8.5ft 8s 6s 22 27 mph 994.2mb 53f 52f
4:50am 9ft 8s 6s 22 27 mph 994.4mb 53f 52f
3:50am 8.5ft 8s 6s 27 31 mph 994.2mb 53f 52f
2:50am 8ft 8s 6s 25 29 mph 994.3mb 53f 52f
1:50am 8ft 7s 6s 25 29 mph 994.5mb 53f 52f
12:50am  -   -   -  29 36 mph 995.1mb 53f 53f
Tue 09/16 11:50pm 7ft 6s 5s 25 29 mph 995.1mb 53f 52f
10:50pm 7.5ft 7s 5s 22 27 mph 995.1mb 53f 53f
9:50pm 8ft 7s 6s 22 27 mph 995.5mb 53f 52f
8:50pm 7.5ft 8s 5s 20 27 mph 995.5mb 53f 52f
7:50pm 7.5ft 7s 6s 22 27 mph 996mb 53f 53f
6:50pm 7ft 7s 6s 20 22 mph 995.7mb 53f 53f
5:50pm 6.5ft 8s 6s 20 25 mph 996.2mb 53f 53f
4:50pm 7.5ft 7s 6s 16 20 mph 996.4mb 53f 53f
3:50pm 7ft 7s 5s 16 20 mph 996.6mb 53f 53f
2:50pm 9ft 7s 6s 18 22 mph 996.8mb 53f 53f
1:50pm 9.5ft 7s 6s 20 22 mph 997.4mb 53f 54f
12:50pm 8ft 6s 5s 27 34 mph 998.3mb 53f 53f
11:50am 6.5ft 5s 5s 29 38 mph 999.9mb 53f 52f
10:50am  -   -   -  27 34 mph 1001.5mb 53f 52f
9:50am 5ft 5s 5s 25 29 mph 1002.7mb 53f 52f
8:50am 5ft 5s 5s 22 27 mph 1004.4mb 53f 52f
7:50am 4.5ft 8s 5s 16 20 mph 1005.8mb 53f 52f
6:50am 4.5ft 8s 5s 13 18 mph 1006.2mb 53f 52f
5:50am 4.5ft 6s 5s 13 18 mph 1006.7mb 53f 53f
4:50am 5ft 8s 5s 13 16 mph 1007.3mb 53f 51f
3:50am 4.5ft 8s 5s 11 16 mph 1007.6mb 53f 53f
2:50am 5ft 8s 6s 11 13 mph 1008mb 53f 53f
1:50am 6ft 8s 6s 9 11 mph 1008.1mb 53f 53f
12:50am 6ft 9s 6s 9
mph
1008.5mb 53f 53f
Mon 09/15 11:50pm 6.5ft 9s 6s 11 13 mph 1008.9mb 53f 53f
10:50pm 7ft 8s 6s 13 16 mph 1009.3mb 53f 53f
9:50pm 7ft 7s 6s 18 20 mph 1009.2mb 53f 53f
8:50pm 7ft 10s 6s 18 20 mph 1008.9mb 53f 52f
7:50pm 8ft 8s 6s 18 20 mph 1008.4mb 53f 52f
6:50pm 9ft 10s 6s 18 22 mph 1007.9mb 53f 52f
5:50pm 9ft 9s 6s 18 22 mph 1007.3mb 53f 52f
4:50pm 9.5ft 10s 7s 20 25 mph 1007.1mb 53f 52f
3:50pm 10ft 9s 7s 16 20 mph 1006.7mb 53f 52f
2:50pm 10ft 10s 7s 16 20 mph 1006.3mb 53f 52f
1:50pm 10.5ft 9s 7s 18 25 mph 1005.9mb 53f 52f
12:50pm 11ft 9s 7s 22 27 mph 1005.6mb 53f 52f
11:50am 12ft 10s 7s 22 27 mph 1005.2mb 53f 52f
10:50am 12ft 11s 7s 20 27 mph 1004.6mb 53f 52f
9:50am 13ft 10s 7s 22 27 mph 1004mb 53f 53f
8:50am 14ft 11s 8s 22 29 mph 1003.3mb 53f 53f
7:50am 15ft 11s 8s 22 27 mph 1002.2mb 53f 53f
6:50am 16ft 11s 8s 25 29 mph 1001.1mb 53f 53f
5:50am 17.5ft 10s 8s 25 29 mph 1000.4mb 52f 52f
4:50am 15.5ft 11s 8s 25 31 mph 999.4mb 52f 53f